Time;durP1;ratioP1;P1;durP2;ratioP2;P2;SDS_P1;SDS_P2;PMS_P1;PMS_P2;Temp;Humidity;BMP_temperature;BMP_pressure;BME280_temperature;BME280_humidity;BME280_pressure;Samples;Min_cycle;Max_cycle;Signal;HPM_P1;HPM_P2
2021/03/07 00:00:15;;;;;;;30.88;13.90;;;;;;;-1.73;57.16;101870.94;1730855;83;21080;-72
2021/03/07 00:02:44;;;;;;;21.33;13.08;;;;;;;-1.78;57.29;101870.04;1730981;83;21433;-73
2021/03/07 00:05:12;;;;;;;22.13;13.25;;;;;;;-1.82;57.49;101866.10;1730952;83;21460;-75
2021/03/07 00:07:41;;;;;;;31.12;15.88;;;;;;;-1.85;57.58;101863.08;1731042;81;21481;-73
2021/03/07 00:10:11;;;;;;;32.10;16.05;;;;;;;-1.90;57.79;101864.31;1730890;83;21809;-74
2021/03/07 00:12:40;;;;;;;29.75;15.58;;;;;;;-1.92;57.90;101860.00;1730829;81;21047;-73
2021/03/07 00:15:10;;;;;;;33.30;15.18;;;;;;;-1.95;58.10;101849.70;1730847;83;20943;-73
2021/03/07 00:17:38;;;;;;;37.88;18.05;;;;;;;-1.97;58.30;101853.95;1730950;83;21358;-74
2021/03/07 00:20:09;;;;;;;32.03;15.78;;;;;;;-1.97;58.21;101844.96;1730889;83;20924;-73
2021/03/07 00:22:38;;;;;;;39.40;17.48;;;;;;;-1.99;58.32;101838.94;1730945;81;21372;-73
2021/03/07 00:25:07;;;;;;;37.50;16.42;;;;;;;-2.00;58.34;101833.34;1730826;83;20905;-73
2021/03/07 00:27:36;;;;;;;41.83;17.25;;;;;;;-2.01;58.41;101831.62;1730872;81;20924;-72
2021/03/07 00:30:07;;;;;;;35.25;17.27;;;;;;;-2.04;58.46;101836.75;1730858;81;20936;-72
2021/03/07 00:32:35;;;;;;;36.10;17.82;;;;;;;-2.04;58.49;101834.17;1730905;81;20944;-73
2021/03/07 00:35:06;;;;;;;41.60;19.73;;;;;;;-2.10;58.67;101830.67;1730869;83;21370;-74
2021/03/07 00:37:34;;;;;;;28.42;16.17;;;;;;;-2.11;58.83;101831.53;1730866;83;21326;-73
2021/03/07 00:40:06;;;;;;;43.85;20.25;;;;;;;-2.14;58.92;101825.48;1730866;81;20996;-73
2021/03/07 00:42:33;;;;;;;40.58;20.65;;;;;;;-2.15;59.04;101826.34;1730871;83;21019;-73
2021/03/07 00:45:06;;;;;;;42.62;21.50;;;;;;;-2.16;59.27;101827.16;1730882;81;21436;-74
2021/03/07 00:47:34;;;;;;;50.90;26.73;;;;;;;-2.18;59.21;101828.85;1731236;81;21779;-76
2021/03/07 00:50:12;;;;;;;41.00;21.42;;;;;;;-2.19;59.21;101830.99;1730843;83;20996;-73
2021/03/07 00:52:41;;;;;;;34.00;19.10;;;;;;;-2.18;59.32;101825.88;1730926;82;21405;-75
2021/03/07 00:55:09;;;;;;;40.05;18.87;;;;;;;-2.20;59.40;101824.11;1730816;83;21047;-74
2021/03/07 00:57:37;;;;;;;36.05;17.20;;;;;;;-2.20;59.40;101813.84;1730922;81;20916;-73
2021/03/07 01:00:14;;;;;;;42.03;18.07;;;;;;;-2.22;59.49;101807.81;1730951;83;21844;-73
2021/03/07 01:02:43;;;;;;;30.90;15.93;;;;;;;-2.24;59.53;101805.68;1730908;81;21030;-73
2021/03/07 01:05:13;;;;;;;30.85;13.85;;;;;;;-2.25;59.57;101811.64;1730896;83;20988;-73
2021/03/07 01:07:41;;;;;;;23.80;11.43;;;;;;;-2.30;59.69;101806.02;1730899;83;21564;-75
2021/03/07 01:10:16;;;;;;;21.62;9.73;;;;;;;-2.30;59.76;101802.59;1730899;83;21023;-74
2021/03/07 01:12:48;;;;;;;21.37;10.38;;;;;;;-2.31;59.83;101801.74;1730858;81;21921;-73
2021/03/07 01:15:20;;;;;;;26.50;10.15;;;;;;;-2.35;59.91;101797.41;1730922;81;20956;-74
2021/03/07 01:17:49;;;;;;;29.45;11.83;;;;;;;-2.37;59.91;101799.52;1730946;81;21055;-76
2021/03/07 01:20:18;;;;;;;29.67;12.00;;;;;;;-2.38;60.14;101802.92;1731019;81;20964;-74
2021/03/07 01:22:48;;;;;;;26.73;11.57;;;;;;;-2.38;60.23;101799.06;1730264;82;20952;-73
2021/03/07 01:25:21;;;;;;;25.55;11.63;;;;;;;-2.37;60.34;101802.09;1730964;81;21739;-73
2021/03/07 01:27:49;;;;;;;28.67;12.95;;;;;;;-2.39;60.32;101793.07;1730773;83;21043;-74
2021/03/07 01:30:19;;;;;;;30.30;11.93;;;;;;;-2.36;60.34;101796.09;1730841;83;20968;-75
2021/03/07 01:32:47;;;;;;;28.95;12.10;;;;;;;-2.37;60.41;101798.23;1731063;81;21477;-73
2021/03/07 01:35:16;;;;;;;32.58;13.25;;;;;;;-2.38;60.47;101796.10;1730938;81;20940;-74
2021/03/07 01:37:44;;;;;;;27.77;12.35;;;;;;;-2.41;60.54;101788.77;1730958;83;21425;-74
2021/03/07 01:40:19;;;;;;;35.78;12.73;;;;;;;-2.44;60.75;101783.60;1730852;83;21007;-73
2021/03/07 01:42:51;;;;;;;23.15;12.37;;;;;;;-2.45;60.79;101783.14;1730914;81;20943;-72
2021/03/07 01:45:20;;;;;;;27.98;13.30;;;;;;;-2.48;60.92;101781.41;1730954;81;20932;-74
2021/03/07 01:47:52;;;;;;;24.20;11.35;;;;;;;-2.48;61.05;101788.25;1730815;82;21318;-73
2021/03/07 01:50:26;;;;;;;22.75;10.82;;;;;;;-2.48;61.23;101786.97;1730837;83;21382;-73
2021/03/07 01:52:54;;;;;;;25.20;12.45;;;;;;;-2.49;61.34;101798.92;1730935;81;20952;-74
2021/03/07 01:55:27;;;;;;;26.62;11.97;;;;;;;-2.51;61.38;101791.66;1730870;83;20999;-74
2021/03/07 01:58:01;;;;;;;28.05;12.45;;;;;;;-2.52;61.46;101789.91;1730697;81;20952;-74
2021/03/07 02:00:29;;;;;;;26.05;12.53;;;;;;;-2.57;61.52;101787.72;1730996;81;20929;-74
2021/03/07 02:02:57;;;;;;;22.87;11.60;;;;;;;-2.58;61.55;101789.42;1730901;81;21430;-74
2021/03/07 02:05:26;;;;;;;25.77;11.48;;;;;;;-2.61;61.65;101794.93;1730818;81;20978;-74
2021/03/07 02:07:55;;;;;;;27.98;13.48;;;;;;;-2.63;61.68;101796.61;1730777;81;20936;-73
2021/03/07 02:10:34;;;;;;;28.25;13.83;;;;;;;-2.64;61.86;101795.76;1730905;81;20944;-73
2021/03/07 02:13:07;;;;;;;29.82;14.78;;;;;;;-2.67;61.97;101791.84;1725127;82;21588;-73
2021/03/07 02:15:35;;;;;;;25.35;12.20;;;;;;;-2.67;61.93;101798.69;1730840;81;21354;-73
2021/03/07 02:18:04;;;;;;;22.40;11.15;;;;;;;-2.71;61.91;101796.52;1730768;81;21020;-73
2021/03/07 02:20:32;;;;;;;30.00;12.30;;;;;;;-2.77;61.93;101792.58;1730727;83;21011;-72
2021/03/07 02:23:07;;;;;;;26.20;12.00;;;;;;;-2.81;61.92;101799.36;1730814;81;21011;-74
2021/03/07 02:25:36;;;;;;;26.30;12.33;;;;;;;-2.85;62.19;101796.73;1730773;83;21468;-74
2021/03/07 02:28:07;;;;;;;25.95;11.48;;;;;;;-2.88;62.31;101794.99;1730858;83;21770;-75
2021/03/07 02:30:35;;;;;;;24.25;11.18;;;;;;;-2.89;62.34;101797.13;1730763;83;20932;-74
2021/03/07 02:33:24;;;;;;;26.77;12.73;;;;;;;-2.93;62.43;101795.36;1708892;83;21003;-75
2021/03/07 02:36:09;;;;;;;27.50;12.00;;;;;;;-2.95;62.67;101796.61;1730958;83;21015;-75
2021/03/07 02:38:39;;;;;;;24.60;11.90;;;;;;;-2.97;62.62;101789.73;1730497;82;20948;-72
2021/03/07 02:41:07;;;;;;;23.65;12.15;;;;;;;-2.98;62.85;101795.69;1731076;81;21369;-73
2021/03/07 02:43:39;;;;;;;21.93;10.82;;;;;;;-2.99;62.91;101795.27;1730935;83;21485;-72
2021/03/07 02:46:11;;;;;;;23.57;12.07;;;;;;;-3.01;62.88;101795.66;1731112;81;21374;-74
2021/03/07 02:48:39;;;;;;;27.13;11.30;;;;;;;-3.02;63.01;101802.92;1751781;81;21698;-74
2021/03/07 02:51:08;;;;;;;23.75;10.20;;;;;;;-3.01;63.07;101800.36;1763133;81;21428;-73
2021/03/07 02:53:36;;;;;;;23.35;10.88;;;;;;;-3.03;63.13;101799.47;1763115;80;21922;-73
2021/03/07 02:56:11;;;;;;;24.35;11.63;;;;;;;-3.04;63.10;101799.47;1763007;81;21447;-72
2021/03/07 02:58:40;;;;;;;21.25;10.78;;;;;;;-3.07;63.25;101800.27;1763203;80;21357;-72
2021/03/07 03:01:10;;;;;;;26.82;14.07;;;;;;;-3.08;63.31;101804.11;1763101;81;21226;-72
2021/03/07 03:03:41;;;;;;;22.58;12.25;;;;;;;-3.07;63.31;101799.41;1763094;81;21112;-73
2021/03/07 03:06:10;;;;;;;18.20;9.85;;;;;;;-3.09;63.40;101801.08;1763105;81;21368;-74
2021/03/07 03:08:39;;;;;;;23.40;10.10;;;;;;;-3.09;63.34;101798.12;1762978;81;20974;-74
2021/03/07 03:11:07;;;;;;;20.95;10.72;;;;;;;-3.13;63.23;101791.21;1763168;81;20962;-74
2021/03/07 03:13:36;;;;;;;20.95;10.72;;;;;;;-3.16;63.37;101797.16;1763181;81;21372;-73
2021/03/07 03:16:05;;;;;;;16.62;8.98;;;;;;;-3.19;63.41;101798.38;1763010;81;20954;-73
2021/03/07 03:18:35;;;;;;;17.95;9.83;;;;;;;-3.20;63.31;101799.63;1762969;81;21632;-73
2021/03/07 03:21:07;;;;;;;17.42;9.55;;;;;;;-3.22;63.40;101795.78;1763068;81;21459;-73
2021/03/07 03:23:35;;;;;;;16.10;9.80;;;;;;;-3.22;63.46;101791.08;1763147;80;21619;-71
2021/03/07 03:26:04;;;;;;;12.58;8.63;;;;;;;-3.22;63.49;101798.34;1762990;81;21005;-73
2021/03/07 03:28:32;;;;;;;12.95;7.25;;;;;;;-3.23;63.42;101787.62;1762976;80;20982;-72
2021/03/07 03:31:00;;;;;;;11.12;6.42;;;;;;;-3.27;63.38;101784.56;1763138;81;21379;-72
2021/03/07 03:33:29;;;;;;;15.65;7.05;;;;;;;-3.29;63.61;101776.02;1762992;81;20994;-71
2021/03/07 03:35:58;;;;;;;15.25;6.95;;;;;;;-3.36;63.86;101776.72;1763008;81;20954;-73
2021/03/07 03:38:34;;;;;;;17.95;6.83;;;;;;;-3.41;63.90;101777.94;1763115;81;21013;-72
2021/03/07 03:41:02;;;;;;;11.93;6.97;;;;;;;-3.47;64.17;101774.41;1762736;81;20986;-74
2021/03/07 03:43:32;;;;;;;12.35;6.83;;;;;;;-3.49;64.25;101769.28;1761896;81;21809;-75
2021/03/07 03:46:01;;;;;;;12.28;6.58;;;;;;;-3.47;64.26;101762.88;1763004;81;21009;-75
2021/03/07 03:48:34;;;;;;;13.50;7.30;;;;;;;-3.46;64.21;101759.48;1763042;80;21050;-73
2021/03/07 03:51:03;;;;;;;11.08;6.70;;;;;;;-3.44;64.17;101762.94;1763146;81;21005;-73
2021/03/07 03:53:31;;;;;;;11.48;6.97;;;;;;;-3.46;64.25;101756.92;1733420;81;20993;-74
2021/03/07 03:55:59;;;;;;;13.32;6.90;;;;;;;-3.47;64.21;101754.75;1762969;80;20958;-74
2021/03/07 03:58:29;;;;;;;12.25;6.40;;;;;;;-3.50;64.37;101756.42;1763059;81;20962;-72
2021/03/07 04:00:57;;;;;;;8.30;4.92;;;;;;;-3.52;64.37;101756.81;1763040;80;20906;-72
2021/03/07 04:03:25;;;;;;;13.30;5.47;;;;;;;-3.52;64.37;101756.81;1762965;80;21017;-74
2021/03/07 04:05:53;;;;;;;6.60;5.15;;;;;;;-3.55;64.48;101749.52;1763042;81;20994;-73
2021/03/07 04:08:22;;;;;;;13.03;7.22;;;;;;;-3.55;64.44;101748.23;1733660;81;21888;-73
2021/03/07 04:10:51;;;;;;;13.22;7.30;;;;;;;-3.57;64.66;101748.63;1763036;81;21614;-72
2021/03/07 04:13:22;;;;;;;11.25;6.97;;;;;;;-3.56;64.75;101750.38;1763066;81;21393;-72
2021/03/07 04:15:52;;;;;;;10.13;6.70;;;;;;;-3.57;64.67;101740.94;1762996;81;21041;-73
2021/03/07 04:18:23;;;;;;;13.60;6.87;;;;;;;-3.58;64.64;101747.31;1734322;81;21464;-74
2021/03/07 04:20:52;;;;;;;10.23;7.15;;;;;;;-3.59;64.71;101743.03;1763050;81;21199;-73
2021/03/07 04:23:19;;;;;;;12.00;7.37;;;;;;;-3.61;64.82;101739.58;1763096;80;21500;-74
2021/03/07 04:25:47;;;;;;;13.72;7.30;;;;;;;-3.60;64.91;101734.88;1733516;81;20943;-75
2021/03/07 04:28:16;;;;;;;13.95;7.25;;;;;;;-3.59;64.79;101734.92;1762944;80;20955;-76
2021/03/07 04:30:43;;;;;;;10.03;6.70;;;;;;;-3.60;64.83;101740.01;1763138;81;20947;-75
2021/03/07 04:33:11;;;;;;;10.05;5.90;;;;;;;-3.60;64.75;101737.45;1763117;81;21814;-74
2021/03/07 04:35:40;;;;;;;12.73;7.67;;;;;;;-3.63;64.85;101742.54;1763117;81;21073;-77
2021/03/07 04:38:08;;;;;;;11.55;6.50;;;;;;;-3.62;64.88;101742.58;1763327;81;20911;-74
2021/03/07 04:40:37;;;;;;;8.63;5.20;;;;;;;-3.61;64.99;101740.86;1733572;81;20950;-73
2021/03/07 04:43:06;;;;;;;12.98;6.87;;;;;;;-3.60;65.08;101741.30;1764799;81;21415;-74
2021/03/07 04:45:34;;;;;;;18.85;8.70;;;;;;;-3.63;65.23;101732.28;1764776;81;21415;-74
2021/03/07 04:48:03;;;;;;;15.53;8.83;;;;;;;-3.63;65.39;101738.69;1759482;81;21577;-73
2021/03/07 04:50:31;;;;;;;10.93;6.83;;;;;;;-3.63;65.57;101740.83;1731085;83;21067;-77
2021/03/07 04:52:59;;;;;;;16.52;7.67;;;;;;;-3.60;65.52;101733.20;1730828;83;20948;-74
2021/03/07 04:55:27;;;;;;;12.25;6.42;;;;;;;-3.59;65.54;101731.07;1730844;83;20909;-74
2021/03/07 04:57:55;;;;;;;9.23;6.25;;;;;;;-3.56;65.59;101722.56;1730918;81;21738;-76
2021/03/07 05:00:24;;;;;;;12.80;7.00;;;;;;;-3.52;65.49;101724.77;1730779;81;21027;-75
2021/03/07 05:02:52;;;;;;;9.18;5.70;;;;;;;-3.51;65.67;101717.11;1730789;83;21422;-75
2021/03/07 05:05:20;;;;;;;11.25;6.25;;;;;;;-3.49;65.45;101716.72;1730823;83;21059;-75
2021/03/07 05:07:47;;;;;;;11.60;6.30;;;;;;;-3.50;65.53;101717.97;1730772;83;20940;-75
2021/03/07 05:10:15;;;;;;;14.30;6.37;;;;;;;-3.46;65.57;101718.46;1730746;81;21701;-75
2021/03/07 05:12:44;;;;;;;13.93;7.08;;;;;;;-3.17;65.52;101722.73;1730765;83;21015;-75
2021/03/07 05:15:13;;;;;;;15.15;8.15;;;;;;;-2.74;64.94;101725.44;1730786;81;21032;-76
2021/03/07 05:17:41;;;;;;;13.78;7.67;;;;;;;-2.20;63.92;101718.77;1730746;83;21019;-76
2021/03/07 05:20:11;;;;;;;14.47;9.13;;;;;;;-1.63;62.91;101716.73;1730851;83;20920;-76
2021/03/07 05:22:39;;;;;;;15.48;7.72;;;;;;;-0.97;61.65;101721.04;1730957;83;22342;-75
2021/03/07 05:25:09;;;;;;;11.65;7.00;;;;;;;-0.31;60.15;101723.86;1730740;83;20948;-76
2021/03/07 05:27:40;;;;;;;11.12;6.85;;;;;;;0.08;58.61;101725.66;1730909;81;21346;-75
2021/03/07 05:30:10;;;;;;;11.75;7.40;;;;;;;0.48;57.54;101726.11;1730668;83;20936;-75
2021/03/07 05:32:38;;;;;;;12.88;6.30;;;;;;;0.80;56.57;101724.77;1730913;83;21374;-75
2021/03/07 05:35:08;;;;;;;12.45;6.75;;;;;;;1.08;55.79;101721.70;1730796;81;21003;-75
2021/03/07 05:37:36;;;;;;;12.53;6.95;;;;;;;1.31;55.00;101716.88;1730812;83;21161;-74
2021/03/07 05:40:07;;;;;;;10.68;6.08;;;;;;;1.56;54.15;101718.50;1730787;81;20960;-75
2021/03/07 05:42:37;;;;;;;13.62;7.20;;;;;;;1.75;53.43;101720.98;1730847;81;21362;-75
2021/03/07 05:45:09;;;;;;;11.60;6.65;;;;;;;1.99;52.81;101723.41;1728105;81;21346;-76
2021/03/07 05:47:37;;;;;;;11.50;6.58;;;;;;;2.36;52.38;101717.98;1730754;83;21370;-77
2021/03/07 05:50:08;;;;;;;10.08;6.78;;;;;;;2.82;50.93;101720.12;1757499;80;21477;-76
2021/03/07 05:52:36;;;;;;;16.02;8.48;;;;;;;3.31;49.77;101714.42;1762888;80;20950;-75
2021/03/07 05:55:06;;;;;;;8.20;6.35;;;;;;;3.81;48.98;101718.95;1762947;81;20954;-75
2021/03/07 05:57:34;;;;;;;8.55;5.80;;;;;;;4.40;47.86;101709.81;1762908;81;20966;-74
2021/03/07 06:00:04;;;;;;;10.43;6.50;;;;;;;5.04;46.16;101715.59;1762927;80;21801;-76
2021/03/07 06:02:32;;;;;;;12.28;6.70;;;;;;;5.52;44.68;101705.09;1762871;81;20966;-76
2021/03/07 06:05:00;;;;;;;9.85;7.03;;;;;;;5.94;43.84;101703.73;1762913;80;21061;-75
2021/03/07 06:07:30;;;;;;;8.98;6.35;;;;;;;6.40;42.46;101705.23;1762097;81;21037;-75
2021/03/07 06:10:18;;;;;;;16.60;9.13;;;;;;;6.72;40.81;101695.30;1763135;81;20938;-77
2021/03/07 06:13:10;;;;;;;11.88;7.60;;;;;;;6.97;40.74;101698.08;1763116;80;21133;-77
2021/03/07 06:15:40;;;;;;;29.87;14.80;;;;;;;7.29;39.46;101694.16;1760337;81;20962;-77
2021/03/07 06:18:17;;;;;;;25.50;13.55;;;;;;;7.41;38.78;101692.05;1762841;81;20978;-76
2021/03/07 06:20:50;;;;;;;20.68;11.35;;;;;;;7.52;38.28;101690.89;1763066;80;20934;-76
2021/03/07 06:23:18;;;;;;;12.80;9.13;;;;;;;7.59;38.02;101691.09;1762987;81;20926;-78
2021/03/07 06:25:50;;;;;;;13.68;8.80;;;;;;;7.74;37.91;101681.95;1763121;81;21447;-77
2021/03/07 06:28:27;;;;;;;11.15;5.58;;;;;;;7.93;37.58;101685.67;1762980;80;20970;-76
2021/03/07 06:30:55;;;;;;;13.60;5.95;;;;;;;7.93;36.78;101684.36;1763056;80;20946;-76
2021/03/07 06:33:34;;;;;;;9.90;6.00;;;;;;;7.94;36.85;101687.82;1763075;81;21018;-77
2021/03/07 06:36:20;;;;;;;13.28;6.30;;;;;;;8.09;36.59;101681.69;1763121;80;21012;-78
2021/03/07 06:38:51;;;;;;;7.78;5.90;;;;;;;8.23;36.32;101680.38;1697842;83;21452;-78
2021/03/07 06:41:23;;;;;;;10.48;6.08;;;;;;;8.27;36.22;101683.27;1698154;84;21077;-76
2021/03/07 06:44:17;;;;;;;12.63;6.22;;;;;;;8.39;36.09;101668.49;1846029;76;23308;-75
2021/03/07 06:46:47;;;;;;;11.25;8.35;;;;;;;8.48;35.72;101672.12;1818078;79;21089;-75
2021/03/07 06:49:28;;;;;;;10.95;6.72;;;;;;;8.54;35.82;101668.45;1818001;79;21358;-74
2021/03/07 06:52:17;;;;;;;9.85;6.90;;;;;;;8.57;35.63;101668.34;1818012;79;20943;-74
2021/03/07 06:55:12;;;;;;;11.93;7.75;;;;;;;8.54;36.02;101659.73;1817962;78;21305;-77
2021/03/07 06:57:40;;;;;;;9.43;6.08;;;;;;;8.57;36.05;101662.27;1817953;79;20883;-77
2021/03/07 07:00:11;;;;;;;10.85;4.75;;;;;;;8.51;36.16;101654.17;1817957;79;20909;-76
2021/03/07 07:02:39;;;;;;;6.05;5.20;;;;;;;8.44;36.05;101653.98;1817966;79;21366;-76
2021/03/07 07:05:09;;;;;;;14.73;5.83;;;;;;;7.95;36.37;101657.75;1817957;79;20903;-75
2021/03/07 07:07:46;;;;;;;8.48;5.53;;;;;;;7.39;37.34;101659.08;1817959;78;21009;-77
2021/03/07 07:10:16;;;;;;;5.58;3.90;;;;;;;6.84;38.43;101661.05;1817987;78;21317;-75
2021/03/07 07:12:44;;;;;;;9.60;5.28;;;;;;;6.19;38.74;101658.45;1818016;77;21002;-76
2021/03/07 07:15:13;;;;;;;8.45;6.92;;;;;;;5.76;39.92;101662.06;1818094;77;21801;-75
2021/03/07 07:17:42;;;;;;;8.38;5.45;;;;;;;5.76;40.34;101657.70;1818043;79;21369;-74
2021/03/07 07:20:12;;;;;;;8.28;5.28;;;;;;;6.13;40.26;101659.44;1817961;77;21002;-76
2021/03/07 07:22:40;;;;;;;9.68;6.05;;;;;;;6.48;39.99;101658.15;1817985;79;21721;-74
2021/03/07 07:25:10;;;;;;;8.28;5.28;;;;;;;6.88;39.60;101650.55;1818015;79;20887;-76
2021/03/07 07:27:38;;;;;;;10.23;5.28;;;;;;;7.29;38.26;101649.80;1818320;79;22135;-76
2021/03/07 07:30:07;;;;;;;9.45;5.42;;;;;;;7.50;37.31;101639.18;1818105;79;20903;-77
2021/03/07 07:32:43;;;;;;;8.73;5.40;;;;;;;7.53;37.07;101640.37;1787002;79;21337;-76
2021/03/07 07:35:22;;;;;;;14.63;6.80;;;;;;;7.60;36.94;101627.53;1818037;77;20974;-76
2021/03/07 07:38:01;;;;;;;9.08;5.72;;;;;;;7.75;36.89;101626.20;1817973;79;21057;-76
2021/03/07 07:40:41;;;;;;;8.08;5.80;;;;;;;7.81;36.53;101619.48;1818074;77;21404;-75
2021/03/07 07:43:10;;;;;;;9.15;5.97;;;;;;;7.89;36.57;101614.84;1817871;78;21364;-73
2021/03/07 07:45:38;;;;;;;8.30;5.92;;;;;;;7.97;35.92;101610.23;1817966;79;20946;-77
2021/03/07 07:48:08;;;;;;;7.62;5.42;;;;;;;8.12;35.98;101615.87;1787147;79;20915;-80
2021/03/07 07:50:39;;;;;;;9.28;5.70;;;;;;;8.16;35.74;101618.75;1817988;79;20903;-80
2021/03/07 07:53:18;;;;;;;8.80;5.53;;;;;;;8.15;35.83;101620.52;1818026;77;21371;-83
2021/03/07 07:55:50;;;;;;;9.75;5.78;;;;;;;8.29;35.78;101620.92;1817352;77;21376;-85
2021/03/07 07:58:43;;;;;;;7.97;5.60;;;;;;;8.42;36.01;101621.36;1817487;77;21345;-80
2021/03/07 08:01:14;;;;;;;9.10;6.40;;;;;;;8.63;35.44;101618.45;1817858;79;20943;-84
2021/03/07 08:03:46;;;;;;;8.70;7.53;;;;;;;8.89;34.88;101612.72;1817666;79;21531;-79
2021/03/07 08:06:32;;;;;;;6.95;6.20;;;;;;;9.03;34.75;101617.00;1817415;77;21363;-78
2021/03/07 08:09:01;;;;;;;9.90;6.78;;;;;;;9.26;34.63;101600.88;1817369;79;21018;-78
2021/03/07 08:11:29;;;;;;;27.73;7.10;;;;;;;9.46;34.63;101591.77;1817414;78;20923;-78
2021/03/07 08:13:59;;;;;;;7.55;5.15;;;;;;;9.63;33.95;101596.81;1817444;77;20935;-78
2021/03/07 08:16:43;;;;;;;8.83;7.15;;;;;;;9.81;33.60;101577.72;1817475;78;20891;-79
2021/03/07 08:19:16;;;;;;;;;;;;;;;9.96;33.24;101581.48;1820044;77;21338;-78
2021/03/07 08:22:00;;;;;;;10.35;5.58;;;;;;;10.19;33.03;101570.47;1817503;79;20667;-76
2021/03/07 08:24:56;;;;;;;6.42;5.05;;;;;;;10.25;32.58;101567.12;1817162;79;20934;-72
2021/03/07 08:27:34;;;;;;;9.93;5.43;;;;;;;10.44;31.32;101559.78;1817638;79;20985;-74
2021/03/07 08:30:08;;;;;;;5.55;4.17;;;;;;;10.58;31.39;101560.01;1817487;79;20982;-73
2021/03/07 08:32:43;;;;;;;6.85;4.40;;;;;;;10.56;31.09;101549.61;1817546;79;22341;-71
2021/03/07 08:35:18;;;;;;;10.35;4.47;;;;;;;10.48;31.26;101546.94;1817588;79;21033;-73
2021/03/07 08:38:10;;;;;;;8.70;5.15;;;;;;;10.34;31.43;101537.06;1817767;79;21026;-76
2021/03/07 08:40:48;;;;;;;6.92;4.58;;;;;;;10.20;31.10;101529.75;1817300;77;20989;-77
2021/03/07 08:43:29;;;;;;;9.25;4.70;;;;;;;10.06;31.79;101529.05;1815756;77;21452;-80
2021/03/07 08:46:18;;;;;;;8.53;5.42;;;;;;;10.06;31.34;101525.12;1817461;77;21137;-81
2021/03/07 08:48:55;;;;;;;6.35;4.70;;;;;;;10.11;31.04;101531.47;1817428;79;20950;-80
2021/03/07 08:51:33;;;;;;;9.15;5.58;;;;;;;10.01;31.00;101516.61;1817353;79;21026;-76
2021/03/07 08:54:06;;;;;;;8.18;5.60;;;;;;;9.87;31.45;101525.07;1817440;79;21587;-81
2021/03/07 08:56:40;;;;;;;13.78;7.45;;;;;;;9.92;32.18;101529.64;1817577;79;21341;-80
2021/03/07 08:59:11;;;;;;;12.28;7.30;;;;;;;10.15;32.21;101528.64;1817638;77;21353;-76
2021/03/07 09:01:40;;;;;;;8.48;5.47;;;;;;;10.33;31.94;101532.26;1817247;78;20895;-78
2021/03/07 09:04:10;;;;;;;10.98;5.50;;;;;;;10.36;31.46;101524.74;1817380;77;20963;-85
2021/03/07 09:06:40;;;;;;;9.50;6.35;;;;;;;10.18;31.61;101518.48;1817899;77;20973;-92
2021/03/07 09:09:18;;;;;;;7.60;5.05;;;;;;;10.12;32.16;101520.08;1818533;77;20919;-82
2021/03/07 09:12:07;;;;;;;7.00;5.05;;;;;;;10.16;32.42;101513.80;1817355;79;21362;-79
2021/03/07 09:14:40;;;;;;;6.60;5.37;;;;;;;10.23;31.61;101510.45;1817321;79;20942;-85
2021/03/07 09:17:12;;;;;;;13.25;5.20;;;;;;;10.31;31.35;101518.36;1817605;79;20935;-82
2021/03/07 09:19:40;;;;;;;5.50;4.28;;;;;;;10.22;31.80;101510.88;1778689;79;21057;-76
2021/03/07 09:22:25;;;;;;;5.58;4.08;;;;;;;10.00;30.95;101510.12;1817228;78;20938;-77
2021/03/07 09:25:08;;;;;;;5.20;4.65;;;;;;;9.91;31.69;101516.14;1817270;78;21350;-77
2021/03/07 09:27:40;;;;;;;5.92;4.45;;;;;;;9.84;31.83;101521.25;1817296;78;20938;-81
2021/03/07 09:30:17;;;;;;;8.43;4.50;;;;;;;9.73;31.64;101516.92;1817398;79;20958;-77
2021/03/07 09:32:47;;;;;;;5.80;4.47;;;;;;;9.67;32.17;101513.25;1817297;78;21460;-79
2021/03/07 09:35:22;;;;;;;4.37;3.67;;;;;;;9.62;32.12;101513.44;1817329;78;20970;-78
2021/03/07 09:38:08;;;;;;;9.38;4.70;;;;;;;9.73;32.53;101515.62;1817379;79;21323;-83
2021/03/07 09:40:41;;;;;;;6.05;4.35;;;;;;;9.92;31.20;101510.00;1817419;79;21030;-80
2021/03/07 09:43:16;;;;;;;7.87;4.95;;;;;;;10.01;31.48;101511.84;1817757;77;21476;-77
2021/03/07 09:45:47;;;;;;;7.05;4.58;;;;;;;10.20;31.74;101504.00;1786456;79;20978;-77
2021/03/07 09:48:21;;;;;;;5.50;3.80;;;;;;;10.31;31.52;101500.02;1817366;77;20918;-80
2021/03/07 09:50:50;;;;;;;7.83;4.45;;;;;;;10.47;31.32;101494.08;1817340;77;21370;-78
2021/03/07 09:53:19;;;;;;;5.67;3.80;;;;;;;10.53;30.92;101484.16;1817452;78;20927;-76
2021/03/07 09:55:47;;;;;;;8.73;4.80;;;;;;;10.72;30.97;101481.55;1817509;79;21364;-77
2021/03/07 09:58:15;;;;;;;10.32;5.90;;;;;;;11.27;30.47;101461.00;1817124;77;20927;-80
2021/03/07 10:00:51;;;;;;;13.62;7.08;;;;;;;11.27;30.47;101461.00;1817352;79;20990;-77
2021/03/07 10:05:13;;;;;;;5.10;3.95;;;;;;;11.57;28.33;101452.50;1813503;77;22711;-83
2021/03/07 10:07:41;;;;;;;8.85;5.40;;;;;;;11.24;29.30;101444.53;1784144;80;20977;-78
2021/03/07 10:10:14;;;;;;;4.65;4.05;;;;;;;11.14;30.16;101445.46;1784172;80;22132;-79
2021/03/07 10:12:50;;;;;;;5.70;4.00;;;;;;;11.31;29.92;101429.69;1784109;80;20950;-79
2021/03/07 10:15:31;;;;;;;8.45;4.20;;;;;;;11.48;29.54;101441.98;1784103;79;20993;-78
2021/03/07 10:18:01;;;;;;;7.58;4.80;;;;;;;11.37;29.46;101425.45;1784073;79;21014;-79
2021/03/07 10:20:35;;;;;;;8.65;5.55;;;;;;;11.13;29.43;101409.14;1784181;79;20962;-83
2021/03/07 10:23:03;;;;;;;4.97;3.83;;;;;;;10.86;29.43;101406.58;1784083;80;21431;-76
2021/03/07 10:25:37;;;;;;;6.80;4.87;;;;;;;10.46;30.10;101412.41;1784029;80;21014;-76
2021/03/07 10:28:12;;;;;;;5.90;4.45;;;;;;;10.29;30.83;101410.13;1784230;80;20935;-78
2021/03/07 10:30:44;;;;;;;8.50;4.62;;;;;;;10.16;30.90;101386.67;1784060;80;21443;-75
2021/03/07 10:33:25;;;;;;;6.25;4.15;;;;;;;10.01;31.20;101392.14;1784231;80;20922;-81
2021/03/07 10:36:19;;;;;;;9.45;4.70;;;;;;;9.82;31.66;101387.33;1784284;80;21356;-77
2021/03/07 10:38:51;;;;;;;5.12;4.47;;;;;;;9.54;31.89;101380.70;1784438;80;21456;-80
2021/03/07 10:41:33;;;;;;;6.47;4.42;;;;;;;9.44;31.78;101380.23;1784384;80;21034;-79
2021/03/07 10:44:04;;;;;;;6.67;3.62;;;;;;;9.37;32.29;101376.17;1784085;79;21017;-78
2021/03/07 10:46:41;;;;;;;7.17;4.55;;;;;;;9.42;32.19;101374.20;1784752;80;21462;-82
2021/03/07 10:49:11;;;;;;;7.97;4.83;;;;;;;9.25;32.38;101372.33;1782557;80;21199;-79
2021/03/07 10:51:39;;;;;;;8.75;5.45;;;;;;;9.12;33.16;101360.67;1786712;80;21009;-80
2021/03/07 10:54:07;;;;;;;8.03;4.65;;;;;;;9.25;33.44;101365.78;1731881;80;21069;-78
2021/03/07 10:56:40;;;;;;;8.40;4.62;;;;;;;9.38;33.18;101352.16;1784678;80;21004;-78
2021/03/07 10:59:11;;;;;;;5.97;4.25;;;;;;;9.38;33.23;101350.84;1784216;80;20946;-79
2021/03/07 11:01:39;;;;;;;6.87;5.42;;;;;;;9.31;33.61;101345.87;1784199;80;21408;-80
2021/03/07 11:04:08;;;;;;;8.25;4.62;;;;;;;9.29;33.12;101329.84;1776833;80;21002;-80
2021/03/07 11:06:38;;;;;;;4.33;3.92;;;;;;;9.20;33.37;101321.92;1770712;81;20999;-78
2021/03/07 11:09:07;;;;;;;9.45;4.53;;;;;;;9.06;33.52;101321.67;1770524;81;21041;-80
2021/03/07 11:11:39;;;;;;;10.13;7.58;;;;;;;9.01;33.86;101310.09;1770617;81;20923;-80
2021/03/07 11:14:07;;;;;;;11.55;4.92;;;;;;;9.03;34.06;101303.50;1770735;81;22257;-78
2021/03/07 11:16:36;;;;;;;7.03;5.10;;;;;;;8.99;33.91;101295.39;1770121;79;21488;-77
2021/03/07 11:19:06;;;;;;;8.18;4.20;;;;;;;9.12;34.08;101290.87;1767820;80;20966;-78
2021/03/07 11:21:34;;;;;;;6.78;4.40;;;;;;;9.29;33.21;101294.50;1769998;79;20895;-78
2021/03/07 11:24:01;;;;;;;4.42;4.03;;;;;;;9.27;32.83;101274.09;1770022;81;20954;-81
2021/03/07 11:26:30;;;;;;;6.53;4.55;;;;;;;9.08;33.20;101280.60;1770139;81;22160;-81
2021/03/07 11:28:58;;;;;;;10.18;4.92;;;;;;;8.83;33.65;101269.03;1769890;81;20982;-83
2021/03/07 11:31:26;;;;;;;8.18;4.95;;;;;;;8.74;33.52;101278.12;1770126;79;21622;-83
2021/03/07 11:33:55;;;;;;;8.20;5.08;;;;;;;8.69;33.94;101270.89;1770062;81;21496;-79
2021/03/07 11:36:23;;;;;;;5.53;4.25;;;;;;;8.67;33.78;101268.80;1770152;81;20919;-80
2021/03/07 11:38:52;;;;;;;9.13;4.85;;;;;;;8.67;33.68;101260.52;1770041;79;21480;-81
2021/03/07 11:41:20;;;;;;;12.98;4.20;;;;;;;8.66;34.25;101263.19;1770121;79;21440;-83
2021/03/07 11:43:48;;;;;;;6.35;3.72;;;;;;;8.66;33.66;101250.97;1769866;79;20975;-82